Super Servant 4 — PJPO — position and weather

sailwx.info

Track history (hours):
 
Tides and Currents Weather Stations Pressure Air Temp Water Temp Dewpoint Dewpoint Depression Visibility Wind Speed Wind Dir Waves Ship Positions

Super Servant 4

Last reported at 2015-Mar-27 22:17 UTC. Time now 2015-Apr-02 01:23 UTC.
Position N 26°11' W 079°29'.

Length 139 m; beam 32 m.

Type: Cargo ship. MMSI: 306157000.

Date/timePositionNaut miles runAvg speedWind from/ knotsBaromVisibWave heightAir tempDewpointWater temp
2015-Mar-27 22:17N 26°11' W 079°29'911.9
2015-Mar-27 21:33N 26°10' W 079°39'1111.4
2015-Mar-27 20:33N 26°09' W 079°52'1110.6
2015-Mar-27 19:33N 26°06' W 080°03'4 3.1
2015-Mar-27 18:25N 26°05' W 080°07'0 0.0
2015-Mar-27 17:28N 26°05' W 080°07'0 0.0
2015-Mar-27 16:28N 26°05' W 080°07'0 0.0
2015-Mar-27 15:28N 26°05' W 080°07'0 0.0
2015-Mar-27 14:31N 26°05' W 080°07'0 0.0
2015-Mar-27 13:28N 26°05' W 080°07'0 0.0
2015-Mar-27 12:31N 26°05' W 080°07'0 0.0
2015-Mar-27 11:31N 26°05' W 080°07'0 0.0
2015-Mar-27 10:31N 26°05' W 080°07'0 0.0
2015-Mar-27 09:31N 26°05' W 080°07'0 0.0
2015-Mar-27 08:31N 26°05' W 080°07'0 0.0
2015-Mar-27 07:22N 26°05' W 080°07'0 0.0
2015-Mar-27 06:22N 26°05' W 080°07'0 0.0
2015-Mar-27 05:25N 26°05' W 080°07'0 0.0
2015-Mar-27 04:25N 26°05' W 080°07'0 0.0
2015-Mar-27 03:25N 26°05' W 080°07'0 0.0
2015-Mar-27 02:28N 26°05' W 080°07'0 0.0
2015-Mar-27 01:28N 26°05' W 080°07'0 0.0
2015-Mar-27 00:31N 26°05' W 080°07'0 0.0
2015-Mar-26 23:31N 26°05' W 080°07'0 0.0
2015-Mar-26 22:31N 26°05' W 080°07'0 0.0
2015-Mar-26 21:31N 26°05' W 080°07'0 0.0
2015-Mar-26 20:31N 26°05' W 080°07'0 0.0
2015-Mar-26 19:31N 26°05' W 080°07'0 0.0
2015-Mar-26 18:31N 26°05' W 080°07'0 0.0
2015-Mar-26 17:31N 26°05' W 080°07'0 0.0
2015-Mar-26 16:22N 26°05' W 080°07'0 0.0
2015-Mar-26 15:25N 26°05' W 080°07'0 0.0
2015-Mar-26 14:25N 26°05' W 080°07'0 0.0
2015-Mar-26 13:28N 26°05' W 080°07'0 0.0
2015-Mar-26 12:28N 26°05' W 080°07'0 0.0
2015-Mar-26 11:28N 26°05' W 080°07'0 0.0
2015-Mar-26 10:31N 26°05' W 080°07'0 0.0
2015-Mar-26 09:31N 26°05' W 080°07'0 0.0
2015-Mar-26 08:31N 26°05' W 080°07'0 0.0
2015-Mar-26 07:31N 26°05' W 080°07'0 0.0
2015-Mar-26 06:31N 26°05' W 080°07'0 0.0
2015-Mar-26 05:31N 26°05' W 080°07'0 0.0
2015-Mar-26 04:31N 26°05' W 080°07'0 0.0
2015-Mar-26 03:22N 26°05' W 080°07'0 0.0
2015-Mar-26 02:22N 26°05' W 080°07'0 0.3
2015-Mar-26 01:33N 26°06' W 080°07'6 5.6
2015-Mar-26 00:33N 26°05' W 080°01'3 3.1
2015-Mar-25 23:33N 26°07' W 079°59'5 4.9
2015-Mar-25 22:33N 26°09' W 079°54'1010.4
2015-Mar-25 21:33N 26°10' W 079°42'1110.9
2015-Mar-25 20:34N 26°13' W 079°30'1111.1
2015-Mar-25 19:34N 26°14' W 079°18'1211.5
2015-Mar-25 18:33N 26°14' W 079°05'1511.7
2015-Mar-25 17:18N 26°10' W 078°49'911.8
2015-Mar-25 16:32N 26°08' W 078°40'1211.2
2015-Mar-25 15:29N 26°03' W 078°28'  
Track history (hours):
 
Tides and Currents Weather Stations Pressure Air Temp Water Temp Dewpoint Dewpoint Depression Visibility Wind Speed Wind Dir Waves Ship Positions

Super Servant 4

Last reported at 2015-Mar-27 22:17 UTC. Time now 2015-Apr-02 01:23 UTC.
Position N 26°11' W 079°29'.

Length 139 m; beam 32 m.

Type: Cargo ship. MMSI: 306157000.

Date/timePositionNaut miles runAvg speedWind from/ knotsBaromVisibWave heightAir tempDewpointWater temp
2015-Mar-27 22:17N 26°11' W 079°29'911.9
2015-Mar-27 21:33N 26°10' W 079°39'1111.4
2015-Mar-27 20:33N 26°09' W 079°52'1110.6
2015-Mar-27 19:33N 26°06' W 080°03'4 3.1
2015-Mar-27 18:25N 26°05' W 080°07'0 0.0
2015-Mar-27 17:28N 26°05' W 080°07'0 0.0
2015-Mar-27 16:28N 26°05' W 080°07'0 0.0
2015-Mar-27 15:28N 26°05' W 080°07'0 0.0
2015-Mar-27 14:31N 26°05' W 080°07'0 0.0
2015-Mar-27 13:28N 26°05' W 080°07'0 0.0
2015-Mar-27 12:31N 26°05' W 080°07'0 0.0
2015-Mar-27 11:31N 26°05' W 080°07'0 0.0
2015-Mar-27 10:31N 26°05' W 080°07'0 0.0
2015-Mar-27 09:31N 26°05' W 080°07'0 0.0
2015-Mar-27 08:31N 26°05' W 080°07'0 0.0
2015-Mar-27 07:22N 26°05' W 080°07'0 0.0
2015-Mar-27 06:22N 26°05' W 080°07'0 0.0
2015-Mar-27 05:25N 26°05' W 080°07'0 0.0
2015-Mar-27 04:25N 26°05' W 080°07'0 0.0
2015-Mar-27 03:25N 26°05' W 080°07'0 0.0
2015-Mar-27 02:28N 26°05' W 080°07'0 0.0
2015-Mar-27 01:28N 26°05' W 080°07'0 0.0
2015-Mar-27 00:31N 26°05' W 080°07'0 0.0
2015-Mar-26 23:31N 26°05' W 080°07'0 0.0
2015-Mar-26 22:31N 26°05' W 080°07'0 0.0
2015-Mar-26 21:31N 26°05' W 080°07'0 0.0
2015-Mar-26 20:31N 26°05' W 080°07'0 0.0
2015-Mar-26 19:31N 26°05' W 080°07'0 0.0
2015-Mar-26 18:31N 26°05' W 080°07'0 0.0
2015-Mar-26 17:31N 26°05' W 080°07'0 0.0
2015-Mar-26 16:22N 26°05' W 080°07'0 0.0
2015-Mar-26 15:25N 26°05' W 080°07'0 0.0
2015-Mar-26 14:25N 26°05' W 080°07'0 0.0
2015-Mar-26 13:28N 26°05' W 080°07'0 0.0
2015-Mar-26 12:28N 26°05' W 080°07'0 0.0
2015-Mar-26 11:28N 26°05' W 080°07'0 0.0
2015-Mar-26 10:31N 26°05' W 080°07'0 0.0
2015-Mar-26 09:31N 26°05' W 080°07'0 0.0
2015-Mar-26 08:31N 26°05' W 080°07'0 0.0
2015-Mar-26 07:31N 26°05' W 080°07'0 0.0
2015-Mar-26 06:31N 26°05' W 080°07'0 0.0
2015-Mar-26 05:31N 26°05' W 080°07'0 0.0
2015-Mar-26 04:31N 26°05' W 080°07'0 0.0
2015-Mar-26 03:22N 26°05' W 080°07'0 0.0
2015-Mar-26 02:22N 26°05' W 080°07'0 0.3
2015-Mar-26 01:33N 26°06' W 080°07'6 5.6
2015-Mar-26 00:33N 26°05' W 080°01'3 3.1
2015-Mar-25 23:33N 26°07' W 079°59'5 4.9
2015-Mar-25 22:33N 26°09' W 079°54'1010.4
2015-Mar-25 21:33N 26°10' W 079°42'1110.9
2015-Mar-25 20:34N 26°13' W 079°30'1111.1
2015-Mar-25 19:34N 26°14' W 079°18'1211.5
2015-Mar-25 18:33N 26°14' W 079°05'1511.7
2015-Mar-25 17:18N 26°10' W 078°49'911.8
2015-Mar-25 16:32N 26°08' W 078°40'1211.2
2015-Mar-25 15:29N 26°03' W 078°28'  

Dump ship's entire track history